createdAt,value
2017-12-23T00:00:36.134Z,9.93
2017-12-23T00:03:02.416Z,10.23
2017-12-23T00:05:28.692Z,9.87
2017-12-23T00:07:54.957Z,10.40
2017-12-23T00:10:21.203Z,10.00
2017-12-23T00:12:47.471Z,10.00
2017-12-23T00:15:13.744Z,10.00
2017-12-23T00:17:39.982Z,8.80
2017-12-23T00:20:07.119Z,10.87
2017-12-23T00:22:33.425Z,11.10
2017-12-23T00:24:59.807Z,11.37
2017-12-23T00:27:26.087Z,12.43
2017-12-23T00:29:52.301Z,11.00
2017-12-23T00:32:18.639Z,11.70
2017-12-23T00:34:44.905Z,11.13
2017-12-23T00:37:11.224Z,10.60
2017-12-23T00:39:38.111Z,12.30
2017-12-23T00:42:04.355Z,11.10
2017-12-23T00:44:30.658Z,11.27
2017-12-23T00:46:56.941Z,11.60
2017-12-23T00:49:23.232Z,11.50
2017-12-23T00:51:49.534Z,11.70
2017-12-23T00:54:15.769Z,11.10
2017-12-23T00:56:42.808Z,11.53
2017-12-23T00:59:09.062Z,12.17
2017-12-23T01:01:35.346Z,12.07
2017-12-23T01:04:01.626Z,11.50
2017-12-23T01:06:27.863Z,12.80
2017-12-23T01:08:54.123Z,12.10
2017-12-23T01:11:28.131Z,12.80
2017-12-23T01:13:54.509Z,10.80
2017-12-23T01:16:20.763Z,11.00
2017-12-23T01:18:47.072Z,12.50
2017-12-23T01:21:13.344Z,12.43
2017-12-23T01:23:39.578Z,11.03
2017-12-23T01:26:05.836Z,12.00
2017-12-23T01:28:32.058Z,11.77
2017-12-23T01:30:58.282Z,11.70
2017-12-23T01:33:25.316Z,11.50
2017-12-23T01:35:51.661Z,10.77
2017-12-23T01:38:17.907Z,10.90
2017-12-23T01:40:44.183Z,10.97
2017-12-23T01:43:13.349Z,13.07
2017-12-23T01:45:40.346Z,10.43
2017-12-23T01:48:06.587Z,10.73
2017-12-23T01:50:32.812Z,10.40
2017-12-23T01:52:59.055Z,11.20
2017-12-23T01:55:25.319Z,10.37
2017-12-23T01:57:51.599Z,9.43
2017-12-23T02:00:17.912Z,12.10
2017-12-23T02:02:44.219Z,11.90
2017-12-23T02:05:10.468Z,10.93
2017-12-23T02:07:36.860Z,10.97
2017-12-23T02:10:03.861Z,11.53
2017-12-23T02:12:30.138Z,11.60
2017-12-23T02:14:56.421Z,11.73
2017-12-23T02:17:22.682Z,12.17
2017-12-23T02:19:48.954Z,13.50
2017-12-23T02:22:15.268Z,11.60
2017-12-23T02:24:41.607Z,13.43
2017-12-23T02:27:07.896Z,12.17
2017-12-23T02:29:34.174Z,12.57
2017-12-23T02:32:00.529Z,10.60
2017-12-23T02:34:26.792Z,10.97
2017-12-23T02:36:59.949Z,13.70
2017-12-23T02:39:26.997Z,13.63
2017-12-23T02:41:53.254Z,13.57
2017-12-23T02:44:19.504Z,13.87
2017-12-23T02:46:45.756Z,13.83
2017-12-23T02:49:12.013Z,13.93
2017-12-23T02:51:39.099Z,15.30
2017-12-23T02:54:06.108Z,13.67
2017-12-23T02:56:32.418Z,15.00
2017-12-23T02:58:58.651Z,15.70
2017-12-23T03:01:24.962Z,13.40
2017-12-23T03:03:51.266Z,12.83
2017-12-23T03:06:18.265Z,15.40
2017-12-23T03:08:44.545Z,13.80
2017-12-23T03:11:11.560Z,14.70
2017-12-23T03:13:37.811Z,15.43
2017-12-23T03:16:04.784Z,14.90
2017-12-23T03:18:31.065Z,14.00
2017-12-23T03:20:57.369Z,16.07
2017-12-23T03:23:23.630Z,14.80
2017-12-23T03:25:49.866Z,15.07
2017-12-23T03:28:16.843Z,14.80
2017-12-23T03:30:43.131Z,15.17
2017-12-23T03:33:10.124Z,15.23
2017-12-23T03:35:36.386Z,15.67
2017-12-23T03:38:02.634Z,14.67
2017-12-23T03:40:28.904Z,14.63
2017-12-23T03:42:55.204Z,14.70
2017-12-23T03:45:22.187Z,14.83
2017-12-23T03:47:48.566Z,14.27
2017-12-23T03:50:14.830Z,12.33
2017-12-23T03:52:41.111Z,15.20
2017-12-23T03:55:07.366Z,13.47
2017-12-23T03:57:34.435Z,14.77
2017-12-23T04:00:00.752Z,13.60
2017-12-23T04:02:27.793Z,13.90
2017-12-23T04:04:54.922Z,14.60
2017-12-23T04:07:21.295Z,14.87
2017-12-23T04:09:48.459Z,14.30
2017-12-23T04:12:14.857Z,13.70
2017-12-23T04:14:42.030Z,14.17
2017-12-23T04:17:08.631Z,13.07
2017-12-23T04:19:35.671Z,12.73
2017-12-23T04:22:01.977Z,13.43
2017-12-23T04:24:28.282Z,13.70
2017-12-23T04:26:54.572Z,13.80
2017-12-23T04:29:21.810Z,12.80
2017-12-23T04:31:49.166Z,12.77
2017-12-23T04:34:15.565Z,14.90
2017-12-23T04:36:42.145Z,13.73
2017-12-23T04:39:08.534Z,13.63
2017-12-23T04:41:35.560Z,14.37
2017-12-23T04:44:01.780Z,11.17
2017-12-23T04:46:28.078Z,13.77
2017-12-23T04:48:55.045Z,14.33
2017-12-23T04:51:21.309Z,14.40
2017-12-23T04:53:47.542Z,15.60
2017-12-23T04:56:13.769Z,16.03
2017-12-23T04:58:40.025Z,15.50
2017-12-23T05:01:06.366Z,15.13
2017-12-23T05:03:33.535Z,14.83
2017-12-23T05:05:59.806Z,15.67
2017-12-23T05:08:26.063Z,14.70
2017-12-23T05:10:53.139Z,15.90
2017-12-23T05:13:19.370Z,13.53
2017-12-23T05:15:45.645Z,14.70
2017-12-23T05:18:11.910Z,16.00
2017-12-23T05:20:38.199Z,14.80
2017-12-23T05:23:05.201Z,16.30
2017-12-23T05:25:31.428Z,14.47
2017-12-23T05:27:57.789Z,15.13
2017-12-23T05:30:24.135Z,15.20
2017-12-23T05:32:52.235Z,15.50
2017-12-23T05:35:18.557Z,14.50
2017-12-23T05:37:45.516Z,15.13
2017-12-23T05:40:11.788Z,15.00
2017-12-23T05:42:38.071Z,15.10
2017-12-23T05:45:04.400Z,13.60
2017-12-23T05:47:30.696Z,15.90
2017-12-23T05:49:57.700Z,14.87
2017-12-23T05:52:24.017Z,14.37
2017-12-23T05:54:51.932Z,15.40
2017-12-23T05:57:18.286Z,14.20
2017-12-23T05:59:46.334Z,14.43
2017-12-23T06:02:12.812Z,15.37
2017-12-23T06:04:39.138Z,15.80
2017-12-23T06:07:06.150Z,16.27
2017-12-23T06:09:33.142Z,16.40
2017-12-23T06:11:59.501Z,17.93
2017-12-23T06:14:25.775Z,17.60
2017-12-23T06:16:52.187Z,17.40
2017-12-23T06:19:19.274Z,18.63
2017-12-23T06:21:45.560Z,16.80
2017-12-23T06:24:13.734Z,19.00
2017-12-23T06:26:40.163Z,15.73
2017-12-23T06:29:06.421Z,19.13
2017-12-23T06:31:33.451Z,17.90
2017-12-23T06:33:59.931Z,17.37
2017-12-23T06:36:26.254Z,18.80
2017-12-23T06:38:52.497Z,18.47
2017-12-23T06:41:18.794Z,21.03
2017-12-23T06:43:45.034Z,19.73
2017-12-23T06:46:11.294Z,20.30
2017-12-23T06:48:37.738Z,20.43
2017-12-23T06:51:04.051Z,20.60
2017-12-23T06:53:30.352Z,19.67
2017-12-23T06:55:56.596Z,21.90
2017-12-23T06:58:22.819Z,21.37
2017-12-23T07:00:49.190Z,21.13
2017-12-23T07:03:15.450Z,23.27
2017-12-23T07:05:42.470Z,22.60
2017-12-23T07:08:09.488Z,21.80
2017-12-23T07:10:35.776Z,24.20
2017-12-23T07:13:02.047Z,23.30
2017-12-23T07:15:28.283Z,23.13
2017-12-23T07:17:54.793Z,25.37
2017-12-23T07:20:21.986Z,23.10
2017-12-23T07:22:48.456Z,24.40
2017-12-23T07:25:15.667Z,24.60
2017-12-23T07:27:41.992Z,25.37
2017-12-23T07:30:08.274Z,24.47
2017-12-23T07:32:34.617Z,24.20
2017-12-23T07:35:00.965Z,25.03
2017-12-23T07:37:27.906Z,24.03
2017-12-23T07:39:54.189Z,23.93
2017-12-23T07:42:21.826Z,22.70
2017-12-23T07:44:49.767Z,23.03
2017-12-23T07:47:17.917Z,23.00
2017-12-23T07:49:45.099Z,22.87
2017-12-23T07:52:11.368Z,24.13
2017-12-23T07:54:38.462Z,21.90
2017-12-23T07:57:05.257Z,23.27
2017-12-23T07:59:32.498Z,23.60
2017-12-23T08:01:59.396Z,20.90
2017-12-23T08:04:26.410Z,22.10
2017-12-23T08:06:53.421Z,21.57
2017-12-23T08:09:19.705Z,21.20
2017-12-23T08:11:45.945Z,23.43
2017-12-23T08:14:12.934Z,18.30
2017-12-23T08:16:39.973Z,21.33
2017-12-23T08:19:08.685Z,21.30
2017-12-23T08:21:38.505Z,20.67
2017-12-23T08:24:05.040Z,20.10
2017-12-23T08:26:32.236Z,22.20
2017-12-23T08:28:58.911Z,20.53
2017-12-23T08:31:25.248Z,18.20
2017-12-23T08:33:52.290Z,19.87
2017-12-23T08:36:18.746Z,19.50
2017-12-23T08:38:45.085Z,16.93
2017-12-23T08:41:11.387Z,20.10
2017-12-23T08:43:37.787Z,20.20
2017-12-23T08:46:04.031Z,16.13
2017-12-23T08:48:31.016Z,18.00
2017-12-23T08:50:59.607Z,18.93
2017-12-23T08:53:25.943Z,18.53
2017-12-23T08:55:52.229Z,18.50
2017-12-23T08:58:19.205Z,20.20
2017-12-23T09:00:45.460Z,19.30
2017-12-23T09:03:11.724Z,18.03
2017-12-23T09:05:38.786Z,19.33
2017-12-23T09:08:05.816Z,20.17
2017-12-23T09:10:32.071Z,18.60
2017-12-23T09:12:58.429Z,17.20
2017-12-23T09:15:24.656Z,19.47
2017-12-23T09:17:50.927Z,16.13
2017-12-23T09:20:17.176Z,18.27
2017-12-23T09:22:43.523Z,18.70
2017-12-23T09:25:10.026Z,18.33
2017-12-23T09:27:37.033Z,19.67
2017-12-23T09:30:03.824Z,19.37
2017-12-23T09:32:30.259Z,17.50
2017-12-23T09:34:56.612Z,18.13
2017-12-23T09:37:22.944Z,17.40
2017-12-23T09:39:49.274Z,18.00
2017-12-23T09:42:16.604Z,17.83
2017-12-23T09:44:42.936Z,17.83
2017-12-23T09:47:14.916Z,16.83
2017-12-23T09:49:41.271Z,17.57
2017-12-23T09:52:07.605Z,17.30
2017-12-23T09:54:33.914Z,17.93
2017-12-23T09:57:00.222Z,17.27
2017-12-23T09:59:26.502Z,15.30
2017-12-23T10:01:52.806Z,16.83
2017-12-23T10:04:19.134Z,15.80
2017-12-23T10:06:45.465Z,14.87
2017-12-23T10:09:11.854Z,15.93
2017-12-23T10:11:38.885Z,15.47
2017-12-23T10:14:05.180Z,15.10
2017-12-23T10:16:31.514Z,14.73
2017-12-23T10:18:57.817Z,14.13
2017-12-23T10:21:24.252Z,13.90
2017-12-23T10:23:50.526Z,10.33
2017-12-23T10:26:16.811Z,12.17
2017-12-23T10:28:43.137Z,12.60
2017-12-23T10:31:09.583Z,10.77
2017-12-23T10:33:36.028Z,11.30
2017-12-23T10:36:02.396Z,11.17
2017-12-23T10:38:28.676Z,10.10
2017-12-23T10:40:54.986Z,9.10
2017-12-23T10:43:22.979Z,9.07
2017-12-23T10:45:49.327Z,7.70
2017-12-23T10:48:15.635Z,9.00
2017-12-23T10:50:42.932Z,8.07
2017-12-23T10:53:09.944Z,7.53
2017-12-23T10:55:40.062Z,7.67
2017-12-23T10:58:06.438Z,7.67
2017-12-23T11:00:35.476Z,7.83
2017-12-23T11:03:02.976Z,7.37
2017-12-23T11:05:29.219Z,7.50
2017-12-23T11:07:55.499Z,7.13
2017-12-23T11:10:21.785Z,6.63
2017-12-23T11:12:48.859Z,6.70
2017-12-23T11:15:15.162Z,6.83
2017-12-23T11:17:41.510Z,5.73
2017-12-23T11:20:08.527Z,6.03
2017-12-23T11:22:34.822Z,5.87
2017-12-23T11:25:01.090Z,6.37
2017-12-23T11:27:27.371Z,4.60
2017-12-23T11:29:53.686Z,5.27
2017-12-23T11:32:19.984Z,5.50
2017-12-23T11:34:46.270Z,4.90
2017-12-23T11:37:13.320Z,4.90
2017-12-23T11:39:39.602Z,4.30
2017-12-23T11:42:06.656Z,3.80
2017-12-23T11:44:32.934Z,4.47
2017-12-23T11:46:59.200Z,4.20
2017-12-23T11:49:25.511Z,4.10
2017-12-23T11:51:51.766Z,4.03
2017-12-23T11:54:18.839Z,3.80
2017-12-23T11:56:45.092Z,4.47
2017-12-23T11:59:12.866Z,3.80
2017-12-23T12:01:40.059Z,4.10
2017-12-23T12:04:07.151Z,3.77
2017-12-23T12:06:33.545Z,3.80
2017-12-23T12:08:59.874Z,4.53
2017-12-23T12:11:26.223Z,3.43
2017-12-23T12:13:52.485Z,4.40
2017-12-23T12:16:18.816Z,3.63
2017-12-23T12:18:45.256Z,3.97
2017-12-23T12:21:11.558Z,3.63
2017-12-23T12:23:37.881Z,3.57
2017-12-23T12:26:04.147Z,3.70
2017-12-23T12:28:30.459Z,4.63
2017-12-23T12:30:56.767Z,4.00
2017-12-23T12:33:23.131Z,5.63
2017-12-23T12:35:50.257Z,7.47
2017-12-23T12:38:16.568Z,4.77
2017-12-23T12:40:42.997Z,5.37
2017-12-23T12:43:09.469Z,5.33
2017-12-23T12:45:36.525Z,3.83
2017-12-23T12:48:02.856Z,4.37
2017-12-23T12:53:20.939Z,4.17
2017-12-23T12:55:47.259Z,4.93
2017-12-23T12:58:14.292Z,5.60
2017-12-23T13:00:40.707Z,5.70
2017-12-23T13:03:07.039Z,5.77
2017-12-23T13:05:34.517Z,5.00
2017-12-23T13:08:02.012Z,6.73
2017-12-23T13:10:28.397Z,7.10
2017-12-23T13:12:54.741Z,6.67
2017-12-23T13:15:21.865Z,7.20
2017-12-23T13:17:48.154Z,8.13
2017-12-23T13:20:14.463Z,5.27
2017-12-23T13:22:41.501Z,7.50
2017-12-23T13:25:08.547Z,7.20
2017-12-23T13:27:34.826Z,7.60
2017-12-23T13:30:01.184Z,7.73
2017-12-23T13:32:27.460Z,5.33
2017-12-23T13:34:53.712Z,5.53
2017-12-23T13:37:20.025Z,8.70
2017-12-23T13:39:46.327Z,9.13
2017-12-23T13:42:13.469Z,8.00
2017-12-23T13:44:40.540Z,9.20
2017-12-23T13:47:06.901Z,9.50
2017-12-23T13:49:33.131Z,9.17
2017-12-23T13:51:59.431Z,8.93
2017-12-23T13:54:25.774Z,8.50
2017-12-23T13:56:52.087Z,8.53
2017-12-23T13:59:18.386Z,9.07
2017-12-23T14:01:45.402Z,9.77
2017-12-23T14:04:11.740Z,7.20
2017-12-23T14:06:38.096Z,7.93
2017-12-23T14:09:05.162Z,8.30
2017-12-23T14:11:32.218Z,9.57
2017-12-23T14:13:58.481Z,8.17
2017-12-23T14:16:24.826Z,8.63
2017-12-23T14:18:51.858Z,8.90
2017-12-23T14:21:18.474Z,9.00
2017-12-23T14:23:44.743Z,9.30
2017-12-23T14:26:11.133Z,11.10
2017-12-23T14:28:37.497Z,8.50
2017-12-23T14:31:03.761Z,10.73
2017-12-23T14:33:30.751Z,10.50
2017-12-23T14:35:57.015Z,11.63
2017-12-23T14:38:23.306Z,12.13
2017-12-23T14:40:49.527Z,11.27
2017-12-23T14:43:15.908Z,10.07
2017-12-23T14:45:42.949Z,11.83
2017-12-23T14:48:16.240Z,11.10
2017-12-23T14:50:42.527Z,11.00
2017-12-23T14:53:08.808Z,11.90
2017-12-23T14:55:35.876Z,11.40
2017-12-23T14:58:02.896Z,12.83
2017-12-23T15:00:30.104Z,13.70
2017-12-23T15:02:56.464Z,13.60
2017-12-23T15:05:22.716Z,15.80
2017-12-23T15:07:49.748Z,14.10
2017-12-23T15:10:16.006Z,15.93
2017-12-23T15:12:43.815Z,14.30
2017-12-23T15:15:10.143Z,16.83
2017-12-23T15:17:36.421Z,16.47
2017-12-23T15:20:03.472Z,18.73
2017-12-23T15:22:30.571Z,17.03
2017-12-23T15:24:56.840Z,20.00
2017-12-23T15:27:23.868Z,19.77
2017-12-23T15:29:50.178Z,18.83
2017-12-23T15:32:16.455Z,19.27
2017-12-23T15:34:43.499Z,19.77
2017-12-23T15:37:10.560Z,19.17
2017-12-23T15:39:36.973Z,20.30
2017-12-23T15:42:04.020Z,20.23
2017-12-23T15:44:31.120Z,23.30
2017-12-23T15:46:58.284Z,21.03
2017-12-23T15:49:24.535Z,24.20
2017-12-23T15:51:50.810Z,19.03
2017-12-23T15:54:17.085Z,25.70
2017-12-23T15:56:43.422Z,24.87
2017-12-23T15:59:10.485Z,23.00
2017-12-23T16:01:37.600Z,24.67
2017-12-23T16:04:03.980Z,27.70
2017-12-23T16:06:30.255Z,26.30
2017-12-23T16:08:56.568Z,22.10
2017-12-23T16:11:23.454Z,29.57
2017-12-23T16:13:50.635Z,26.70
2017-12-23T16:16:17.021Z,26.93
2017-12-23T16:18:43.321Z,28.67
2017-12-23T16:21:09.626Z,29.30
2017-12-23T16:23:35.935Z,29.93
2017-12-23T16:26:02.513Z,31.50
2017-12-23T16:28:28.776Z,20.60
2017-12-23T16:30:55.150Z,30.30
2017-12-23T16:33:21.454Z,34.60
2017-12-23T16:35:48.502Z,33.90
2017-12-23T16:38:15.520Z,33.70
2017-12-23T16:40:41.834Z,31.97
2017-12-23T16:43:08.092Z,28.80
2017-12-23T16:45:34.395Z,32.83
2017-12-23T16:48:00.620Z,33.20
2017-12-23T16:50:27.777Z,33.50
2017-12-23T16:52:54.054Z,29.63
2017-12-23T16:55:20.360Z,32.00
2017-12-23T16:57:46.614Z,33.57
2017-12-23T17:00:13.686Z,30.67
2017-12-23T17:02:40.013Z,33.03
2017-12-23T17:05:06.355Z,34.60
2017-12-23T17:07:32.616Z,35.03
2017-12-23T17:09:58.903Z,35.70
2017-12-23T17:12:25.208Z,34.47
2017-12-23T17:14:52.208Z,33.17
2017-12-23T17:17:18.523Z,36.17
2017-12-23T17:19:44.754Z,35.93
2017-12-23T17:22:11.071Z,37.30
2017-12-23T17:24:37.546Z,37.27
2017-12-23T17:27:04.551Z,35.90
2017-12-23T17:29:51.517Z,39.73
2017-12-23T17:32:18.781Z,41.97
2017-12-23T17:34:45.111Z,37.37
2017-12-23T17:37:11.368Z,41.63
2017-12-23T17:39:37.647Z,41.10
2017-12-23T17:42:03.977Z,38.80
2017-12-23T17:44:30.264Z,42.10
2017-12-23T17:46:56.533Z,39.87
2017-12-23T17:49:22.773Z,38.10
2017-12-23T17:51:49.198Z,38.60
2017-12-23T17:54:15.463Z,39.30
2017-12-23T17:56:43.575Z,39.30
2017-12-23T17:59:09.865Z,38.67
2017-12-23T18:01:37.388Z,39.57
2017-12-23T18:04:03.672Z,39.33
2017-12-23T18:06:29.955Z,41.20
2017-12-23T18:08:56.230Z,40.00
2017-12-23T18:11:22.477Z,40.87
2017-12-23T18:13:48.806Z,39.47
2017-12-23T18:16:15.043Z,40.83
2017-12-23T18:18:41.299Z,43.60
2017-12-23T18:21:08.314Z,39.40
2017-12-23T18:23:34.611Z,37.37
2017-12-23T18:26:00.881Z,39.40
2017-12-23T18:28:27.876Z,37.73
2017-12-23T18:30:54.202Z,37.03
2017-12-23T18:33:20.488Z,37.70
2017-12-23T18:35:46.789Z,36.10
2017-12-23T18:38:13.241Z,32.03
2017-12-23T18:40:39.482Z,35.43
2017-12-23T18:43:05.787Z,37.27
2017-12-23T18:45:32.041Z,34.87
2017-12-23T18:47:58.295Z,34.40
2017-12-23T18:50:25.288Z,29.00
2017-12-23T18:52:51.560Z,34.87
2017-12-23T18:55:18.594Z,32.33
2017-12-23T18:57:44.851Z,32.03
2017-12-23T19:00:11.894Z,35.43
2017-12-23T19:02:38.900Z,32.37
2017-12-23T19:05:05.174Z,32.43
2017-12-23T19:07:31.458Z,27.50
2017-12-23T19:09:57.731Z,30.70
2017-12-23T19:12:24.739Z,31.43
2017-12-23T19:14:50.973Z,30.17
2017-12-23T19:17:17.260Z,29.90
2017-12-23T19:19:43.633Z,30.50
2017-12-23T19:22:09.913Z,31.17
2017-12-23T19:24:36.163Z,32.30
2017-12-23T19:27:02.440Z,27.37
2017-12-23T19:29:29.439Z,27.27
2017-12-23T19:31:55.724Z,27.50
2017-12-23T19:34:22.052Z,30.07
2017-12-23T19:36:49.038Z,28.33
2017-12-23T19:39:15.313Z,28.50
2017-12-23T19:41:42.320Z,27.00
2017-12-23T19:44:08.660Z,28.60
2017-12-23T19:46:34.991Z,28.93
2017-12-23T19:49:01.319Z,28.60
2017-12-23T19:51:27.636Z,27.90
2017-12-23T19:53:53.966Z,27.50
2017-12-23T19:56:20.231Z,27.47
2017-12-23T19:58:46.492Z,27.17
2017-12-23T20:01:13.468Z,27.50
2017-12-23T20:03:39.785Z,25.90
2017-12-23T20:06:06.038Z,48.87
2017-12-23T20:08:33.067Z,25.87
2017-12-23T20:10:59.335Z,25.97
2017-12-23T20:13:25.573Z,23.80
2017-12-23T20:15:52.620Z,23.93
2017-12-23T20:18:19.602Z,24.60
2017-12-23T20:20:45.916Z,26.47
2017-12-23T20:23:12.923Z,24.57
2017-12-23T20:25:45.112Z,23.47
2017-12-23T20:28:12.147Z,21.70
2017-12-23T20:30:38.372Z,22.50
2017-12-23T20:33:04.669Z,19.80
2017-12-23T20:35:32.475Z,22.27
2017-12-23T20:37:58.803Z,21.80
2017-12-23T20:40:25.107Z,21.47
2017-12-23T20:42:51.366Z,20.17
2017-12-23T20:45:17.756Z,21.50
2017-12-23T20:47:44.031Z,23.37
2017-12-23T20:50:11.137Z,22.80
2017-12-23T20:52:37.474Z,22.83
2017-12-23T20:55:03.835Z,22.33
2017-12-23T20:57:30.914Z,22.13
2017-12-23T20:59:57.233Z,22.87
2017-12-23T21:02:23.542Z,23.97
2017-12-23T21:04:50.587Z,22.73
2017-12-23T21:07:17.662Z,22.93
2017-12-23T21:09:43.903Z,21.53
2017-12-23T21:12:10.186Z,21.23
2017-12-23T21:14:37.209Z,20.53
2017-12-23T21:17:03.510Z,20.90
2017-12-23T21:19:29.827Z,20.27
2017-12-23T21:21:56.138Z,20.33
2017-12-23T21:24:23.189Z,24.43
2017-12-23T21:26:50.255Z,21.17
2017-12-23T21:29:16.576Z,22.53
2017-12-23T21:31:43.602Z,21.77
2017-12-23T21:34:09.875Z,18.03
2017-12-23T21:36:36.243Z,20.00
2017-12-23T21:39:02.587Z,19.27
2017-12-23T21:41:29.582Z,19.03
2017-12-23T21:43:55.890Z,19.30
2017-12-23T21:46:22.182Z,20.33
2017-12-23T21:48:48.588Z,17.40
2017-12-23T21:51:14.856Z,20.67
2017-12-23T21:53:41.867Z,20.57
2017-12-23T21:56:08.147Z,21.40
2017-12-23T21:58:34.400Z,19.70
2017-12-23T22:01:00.803Z,20.80
2017-12-23T22:03:27.067Z,22.10
2017-12-23T22:05:53.352Z,19.77
2017-12-23T22:08:21.007Z,21.67
2017-12-23T22:10:48.058Z,21.27
2017-12-23T22:13:15.073Z,19.23
2017-12-23T22:15:41.350Z,19.70
2017-12-23T22:18:07.615Z,19.20
2017-12-23T22:20:33.866Z,20.80
2017-12-23T22:23:00.149Z,19.80
2017-12-23T22:25:26.371Z,15.40
2017-12-23T22:27:52.628Z,21.43
2017-12-23T22:30:18.911Z,22.70
2017-12-23T22:32:45.976Z,21.73
2017-12-23T22:35:12.281Z,24.10
2017-12-23T22:37:39.360Z,21.07
2017-12-23T22:40:05.678Z,22.10
2017-12-23T22:42:33.784Z,19.10
2017-12-23T22:45:00.046Z,20.97
2017-12-23T22:47:26.332Z,22.17
2017-12-23T22:49:52.566Z,22.37
2017-12-23T22:52:18.851Z,21.40
2017-12-23T22:54:45.854Z,25.90
2017-12-23T22:57:12.621Z,21.67
2017-12-23T22:59:38.919Z,23.77
2017-12-23T23:02:05.207Z,21.50
2017-12-23T23:04:31.592Z,24.50
2017-12-23T23:06:57.845Z,24.20
2017-12-23T23:09:24.198Z,23.60
2017-12-23T23:11:50.463Z,25.33
2017-12-23T23:14:16.758Z,26.17
2017-12-23T23:16:43.005Z,23.93
2017-12-23T23:19:09.259Z,24.57
2017-12-23T23:21:35.611Z,23.47
2017-12-23T23:24:01.859Z,25.70
2017-12-23T23:26:28.139Z,23.00
2017-12-23T23:28:54.413Z,24.37
2017-12-23T23:31:20.713Z,26.03
2017-12-23T23:33:46.964Z,24.50
2017-12-23T23:36:13.930Z,26.20
2017-12-23T23:38:40.214Z,26.37
2017-12-23T23:41:06.480Z,26.00
2017-12-23T23:43:33.503Z,20.50
2017-12-23T23:45:59.854Z,25.17
2017-12-23T23:48:26.839Z,25.70
2017-12-23T23:50:53.078Z,24.37
2017-12-23T23:53:19.363Z,24.90
2017-12-23T23:55:45.614Z,29.47
2017-12-23T23:58:11.919Z,25.10
